createdAt,value
2016-08-14T00:00:21.201Z,68.4
2016-08-14T00:00:45.350Z,68.1
2016-08-14T00:01:09.481Z,68.2
2016-08-14T00:01:33.600Z,68.2
2016-08-14T00:01:57.716Z,68.1
2016-08-14T00:02:21.872Z,68.3
2016-08-14T00:02:45.999Z,68.1
2016-08-14T00:03:10.155Z,68.3
2016-08-14T00:03:34.277Z,68.2
2016-08-14T00:03:58.399Z,68.4
2016-08-14T00:04:22.526Z,68.8
2016-08-14T00:04:46.620Z,68.7
2016-08-14T00:05:10.740Z,68.4
2016-08-14T00:05:34.871Z,68.5
2016-08-14T00:05:58.991Z,68.4
2016-08-14T00:06:23.158Z,68.2
2016-08-14T00:06:47.246Z,68.5
2016-08-14T00:07:11.366Z,68.6
2016-08-14T00:07:35.479Z,68.6
2016-08-14T00:07:59.595Z,68.5
2016-08-14T00:08:23.725Z,68.4
2016-08-14T00:08:47.809Z,68.4
2016-08-14T00:09:11.943Z,68.5
2016-08-14T00:09:36.060Z,68.4
2016-08-14T00:10:00.182Z,68.4
2016-08-14T00:10:24.302Z,68.5
2016-08-14T00:10:48.468Z,68.4
2016-08-14T00:11:12.613Z,68.6
2016-08-14T00:11:36.730Z,68.4
2016-08-14T00:12:00.859Z,69
2016-08-14T00:12:24.977Z,68.8
2016-08-14T00:12:49.096Z,68.7
2016-08-14T00:13:13.211Z,68.6
2016-08-14T00:13:37.326Z,68.6
2016-08-14T00:14:01.474Z,68.7
2016-08-14T00:14:25.599Z,68.7
2016-08-14T00:14:49.731Z,68.6
2016-08-14T00:15:13.878Z,68.5
2016-08-14T00:15:38.001Z,68.5
2016-08-14T00:16:02.143Z,68.4
2016-08-14T00:16:26.247Z,69.2
2016-08-14T00:16:50.359Z,69
2016-08-14T00:17:14.472Z,68.9
2016-08-14T00:17:38.604Z,68.9
2016-08-14T00:18:02.731Z,69.1
2016-08-14T00:18:26.874Z,68.9
2016-08-14T00:18:51.036Z,69.1
2016-08-14T00:19:15.144Z,68.8
2016-08-14T00:19:39.293Z,68.9
2016-08-14T00:20:03.405Z,68.8
2016-08-14T00:20:27.524Z,68.8
2016-08-14T00:20:51.648Z,68.7
2016-08-14T00:21:15.800Z,68.7
2016-08-14T00:21:39.945Z,68.8
2016-08-14T00:22:04.059Z,68.8
2016-08-14T00:22:28.208Z,68.8
2016-08-14T00:22:52.364Z,68.7
2016-08-14T00:23:16.469Z,68.6
2016-08-14T00:23:40.601Z,68.6
2016-08-14T00:24:04.721Z,68.7
2016-08-14T00:24:28.869Z,68.8
2016-08-14T00:24:52.974Z,69.1
2016-08-14T00:25:17.205Z,69
2016-08-14T00:25:41.367Z,68.8
2016-08-14T00:26:05.477Z,68.9
2016-08-14T00:26:29.606Z,68.7
2016-08-14T00:26:53.718Z,69
2016-08-14T00:27:17.855Z,68.7
2016-08-14T00:27:41.973Z,68.7
2016-08-14T00:28:06.096Z,68.8
2016-08-14T00:28:30.219Z,68.8
2016-08-14T00:28:54.359Z,69
2016-08-14T00:29:18.485Z,69
2016-08-14T00:29:42.575Z,68.9
2016-08-14T00:30:06.698Z,69
2016-08-14T00:30:30.817Z,69.2
2016-08-14T00:30:54.933Z,69.4
2016-08-14T00:31:19.055Z,69.2
2016-08-14T00:31:43.169Z,69
2016-08-14T00:32:07.281Z,68.9
2016-08-14T00:32:31.404Z,68.8
2016-08-14T00:32:55.527Z,69
2016-08-14T00:33:19.656Z,69.2
2016-08-14T00:33:43.759Z,68.8
2016-08-14T00:34:07.879Z,68.6
2016-08-14T00:34:32.016Z,69
2016-08-14T00:34:56.136Z,68.9
2016-08-14T00:35:20.251Z,68.7
2016-08-14T00:35:44.351Z,69.3
2016-08-14T00:36:08.495Z,69.1
2016-08-14T00:36:32.638Z,69.3
2016-08-14T00:36:56.754Z,69.3
2016-08-14T00:37:20.878Z,69.1
2016-08-14T00:37:44.992Z,69
2016-08-14T00:38:09.120Z,69
2016-08-14T00:38:33.256Z,69.2
2016-08-14T00:38:57.367Z,68.8
2016-08-14T00:39:21.479Z,69.1
2016-08-14T00:39:45.619Z,69.5
2016-08-14T00:40:09.747Z,69.6
2016-08-14T00:40:33.866Z,69.3
2016-08-14T00:40:58.000Z,69.1
2016-08-14T00:41:22.147Z,69.3
2016-08-14T00:41:46.258Z,69.1
2016-08-14T00:42:10.389Z,69.3
2016-08-14T00:42:34.488Z,69.2
2016-08-14T00:42:58.627Z,69.4
2016-08-14T00:43:22.740Z,69
2016-08-14T00:43:46.864Z,69.4
2016-08-14T00:44:10.997Z,69.1
2016-08-14T00:44:35.118Z,69.3
2016-08-14T00:44:59.223Z,69.4
2016-08-14T00:45:23.370Z,69.3
2016-08-14T00:45:47.500Z,69.5
2016-08-14T00:46:11.603Z,69.4
2016-08-14T00:46:35.736Z,69
2016-08-14T00:46:59.865Z,69.4
2016-08-14T00:47:23.988Z,69.3
2016-08-14T00:47:48.107Z,69.4
2016-08-14T00:48:12.236Z,69.4
2016-08-14T00:48:36.360Z,69.2
2016-08-14T00:49:00.467Z,69.3
2016-08-14T00:49:24.591Z,69.3
2016-08-14T00:49:48.736Z,69.2
2016-08-14T00:50:12.858Z,69.2
2016-08-14T00:50:36.967Z,69.2
2016-08-14T00:51:01.114Z,69.2
2016-08-14T00:51:25.225Z,69.2
2016-08-14T00:51:49.357Z,69.4
2016-08-14T00:52:13.487Z,69.2
2016-08-14T00:52:37.577Z,69.2
2016-08-14T00:53:01.701Z,69.3
2016-08-14T00:53:25.823Z,69.2
2016-08-14T00:53:49.932Z,69.3
2016-08-14T00:54:14.067Z,69.3
2016-08-14T00:54:38.192Z,69.5
2016-08-14T00:55:02.311Z,69.6
2016-08-14T00:55:26.434Z,69.7
2016-08-14T00:55:50.590Z,69.4
2016-08-14T00:56:14.712Z,69.4
2016-08-14T00:56:38.837Z,69.7
2016-08-14T00:57:02.940Z,69.7
2016-08-14T00:57:27.085Z,69.7
2016-08-14T00:57:51.249Z,69.7
2016-08-14T00:58:15.390Z,69.3
2016-08-14T00:58:39.530Z,69.4
2016-08-14T00:59:03.630Z,69.4
2016-08-14T00:59:27.748Z,69.3
2016-08-14T00:59:51.867Z,69.4
2016-08-14T01:00:15.992Z,69.5
2016-08-14T01:00:40.119Z,69.4
2016-08-14T01:01:04.230Z,69.6
2016-08-14T01:01:28.350Z,69.1
2016-08-14T01:01:52.476Z,69.3
2016-08-14T01:02:16.597Z,69.1
2016-08-14T01:02:40.736Z,69.6
2016-08-14T01:03:04.857Z,69.6
2016-08-14T01:03:29.096Z,69.6
2016-08-14T01:03:53.224Z,69.4
2016-08-14T01:04:17.335Z,69.5
2016-08-14T01:04:41.468Z,69.1
2016-08-14T01:05:05.580Z,69.5
2016-08-14T01:05:29.712Z,69.1
2016-08-14T01:05:53.836Z,69.1
2016-08-14T01:06:17.943Z,69.5
2016-08-14T01:06:42.065Z,69.5
2016-08-14T01:07:06.191Z,69.5
2016-08-14T01:07:30.316Z,69.5
2016-08-14T01:07:54.419Z,69.5
2016-08-14T01:08:18.552Z,69.5
2016-08-14T01:08:42.676Z,69.2
2016-08-14T01:09:06.801Z,69.5
2016-08-14T01:09:30.947Z,69.1
2016-08-14T01:09:55.083Z,69.1
2016-08-14T01:10:19.257Z,69.1
2016-08-14T01:10:43.441Z,69.4
2016-08-14T01:11:07.554Z,69.4
2016-08-14T01:11:31.681Z,69.2
2016-08-14T01:11:55.797Z,69
2016-08-14T01:12:19.919Z,69.2
2016-08-14T01:12:44.042Z,69.2
2016-08-14T01:13:08.173Z,69.2
2016-08-14T01:13:32.302Z,69.1
2016-08-14T01:13:56.440Z,69.5
2016-08-14T01:14:20.550Z,69.2
2016-08-14T01:14:44.682Z,69.3
2016-08-14T01:15:08.816Z,69.5
2016-08-14T01:15:32.936Z,69.4
2016-08-14T01:15:57.046Z,69.2
2016-08-14T01:16:21.876Z,69.3
2016-08-14T01:16:46.017Z,69.3
2016-08-14T01:17:10.179Z,69.4
2016-08-14T01:17:34.318Z,69.5
2016-08-14T01:17:58.445Z,69.3
2016-08-14T01:18:22.564Z,69.3
2016-08-14T01:18:46.678Z,69.4
2016-08-14T01:19:10.800Z,69.3
2016-08-14T01:19:34.951Z,69.5
2016-08-14T01:19:59.071Z,69.2
2016-08-14T01:20:23.211Z,69.5
2016-08-14T01:20:47.321Z,69.5
2016-08-14T01:21:11.428Z,69.4
2016-08-14T01:21:35.555Z,69.3
2016-08-14T01:21:59.665Z,69.7
2016-08-14T01:22:23.793Z,69.7
2016-08-14T01:22:47.900Z,69.5
2016-08-14T01:23:12.005Z,69.8
2016-08-14T01:23:36.120Z,69.9
2016-08-14T01:24:00.281Z,69.5
2016-08-14T01:24:24.412Z,69.7
2016-08-14T01:24:48.530Z,69.8
2016-08-14T01:25:12.638Z,69.5
2016-08-14T01:25:36.780Z,69.8
2016-08-14T01:26:00.930Z,69.8
2016-08-14T01:26:25.078Z,69.7
2016-08-14T01:26:49.207Z,69.7
2016-08-14T01:27:13.311Z,69.8
2016-08-14T01:27:37.436Z,70
2016-08-14T01:28:01.555Z,69.7
2016-08-14T01:28:25.692Z,69.5
2016-08-14T01:28:49.825Z,69.9
2016-08-14T01:29:13.951Z,69.8
2016-08-14T01:29:38.088Z,69.5
2016-08-14T01:30:02.229Z,69.5
2016-08-14T01:30:26.367Z,70
2016-08-14T01:30:50.522Z,69.7
2016-08-14T01:31:14.631Z,69.5
2016-08-14T01:31:38.772Z,70
2016-08-14T01:32:02.904Z,69.4
2016-08-14T01:32:27.024Z,70
2016-08-14T01:32:51.214Z,69.5
2016-08-14T01:33:15.321Z,69.1
2016-08-14T01:33:39.422Z,69.4
2016-08-14T01:34:03.552Z,69.3
2016-08-14T01:34:27.670Z,69.6
2016-08-14T01:34:51.770Z,69.5
2016-08-14T01:35:15.867Z,69.3
2016-08-14T01:35:39.963Z,69.3
2016-08-14T01:36:04.084Z,69.6
2016-08-14T01:36:28.177Z,69.4
2016-08-14T01:36:52.329Z,69.4
2016-08-14T01:37:16.475Z,69.5
2016-08-14T01:37:40.602Z,69.9
2016-08-14T01:38:04.713Z,69.8
2016-08-14T01:38:28.843Z,69.8
2016-08-14T01:38:52.980Z,69.5
2016-08-14T01:39:17.124Z,69.2
2016-08-14T01:39:41.224Z,69.2
2016-08-14T01:40:05.368Z,69.2
2016-08-14T01:40:29.472Z,69.3
2016-08-14T01:40:53.602Z,69
2016-08-14T01:41:17.725Z,69.4
2016-08-14T01:41:41.861Z,69.2
2016-08-14T01:42:05.988Z,69.1
2016-08-14T01:42:30.117Z,69.1
2016-08-14T01:42:54.249Z,69.2
2016-08-14T01:43:18.350Z,69.3
2016-08-14T01:43:42.508Z,69.4
2016-08-14T01:44:06.676Z,69.4
2016-08-14T01:44:30.805Z,69.4
2016-08-14T01:44:54.926Z,69.4
2016-08-14T01:45:19.088Z,69.4
2016-08-14T01:45:43.224Z,69.2
2016-08-14T01:46:07.345Z,69.1
2016-08-14T01:46:31.464Z,69.4
2016-08-14T01:46:55.590Z,69.1
2016-08-14T01:47:19.698Z,69.1
2016-08-14T01:47:43.820Z,69.2
2016-08-14T01:48:07.955Z,69.4
2016-08-14T01:48:32.068Z,69.2
2016-08-14T01:48:56.214Z,69.2
2016-08-14T01:49:20.331Z,69.2
2016-08-14T01:49:44.435Z,69.3
2016-08-14T01:50:08.584Z,69.4
2016-08-14T01:50:32.683Z,69.2
2016-08-14T01:50:56.776Z,69.5
2016-08-14T01:51:20.902Z,69.9
2016-08-14T01:51:45.008Z,69.7
2016-08-14T01:52:09.137Z,69.5
2016-08-14T01:52:33.252Z,70
2016-08-14T01:52:57.368Z,69.7
2016-08-14T01:53:21.478Z,70
2016-08-14T01:53:45.604Z,70
2016-08-14T01:54:09.725Z,70
2016-08-14T01:54:33.834Z,69.5
2016-08-14T01:54:57.960Z,69.5
2016-08-14T01:55:22.098Z,69.9
2016-08-14T01:55:46.207Z,69.5
2016-08-14T01:56:10.316Z,69.2
2016-08-14T01:56:34.459Z,69.5
2016-08-14T01:56:58.558Z,69.5
2016-08-14T01:57:22.665Z,69.3
2016-08-14T01:57:46.764Z,69.3
2016-08-14T01:58:10.869Z,69.2
2016-08-14T01:58:34.983Z,69.4
2016-08-14T01:58:59.138Z,69.4
2016-08-14T01:59:23.236Z,69.3
2016-08-14T01:59:47.359Z,69.2
2016-08-14T02:00:11.476Z,69.4
2016-08-14T02:00:35.591Z,69.3
2016-08-14T02:00:59.702Z,69.2
2016-08-14T02:01:23.815Z,69.4
2016-08-14T02:01:47.967Z,69.5
2016-08-14T02:02:12.072Z,69.4
2016-08-14T02:02:36.192Z,69.6
2016-08-14T02:03:00.311Z,69.6
2016-08-14T02:03:24.478Z,69.6
2016-08-14T02:03:48.608Z,69.4
2016-08-14T02:04:12.731Z,69.6
2016-08-14T02:04:36.848Z,69.1
2016-08-14T02:05:00.982Z,69.5
2016-08-14T02:05:25.109Z,69.4
2016-08-14T02:05:49.224Z,69.5
2016-08-14T02:06:13.331Z,69.7
2016-08-14T02:06:37.484Z,69.6
2016-08-14T02:07:01.589Z,69.4
2016-08-14T02:07:25.705Z,69.4
2016-08-14T02:07:49.806Z,69.7
2016-08-14T02:08:13.927Z,69.6
2016-08-14T02:08:38.038Z,69.3
2016-08-14T02:09:02.192Z,69.7
2016-08-14T02:09:26.325Z,69.6
2016-08-14T02:09:50.452Z,69.5
2016-08-14T02:10:14.558Z,69.5
2016-08-14T02:10:38.705Z,69.7
2016-08-14T02:11:02.810Z,69.5
2016-08-14T02:11:26.924Z,69.7
2016-08-14T02:11:51.047Z,69.4
2016-08-14T02:12:15.149Z,69.3
2016-08-14T02:12:39.258Z,69.3
2016-08-14T02:13:03.403Z,69.7
2016-08-14T02:13:27.545Z,69.8
2016-08-14T02:13:51.682Z,69.7
2016-08-14T02:14:15.818Z,69.7
2016-08-14T02:14:39.973Z,69.7
2016-08-14T02:15:04.114Z,69.7
2016-08-14T02:15:28.233Z,69.7
2016-08-14T02:15:52.346Z,69.5
2016-08-14T02:16:16.460Z,69.5
2016-08-14T02:16:40.581Z,69.5
2016-08-14T02:17:04.718Z,69.4
2016-08-14T02:17:28.637Z,69.5
2016-08-14T02:17:52.760Z,69.6
2016-08-14T02:18:16.874Z,69.5
2016-08-14T02:18:40.989Z,69.6
2016-08-14T02:19:05.119Z,69.5
2016-08-14T02:19:29.229Z,69.6
2016-08-14T02:19:53.323Z,69.5
2016-08-14T02:20:17.440Z,69.1
2016-08-14T02:20:41.539Z,69.6
2016-08-14T02:21:05.639Z,69.3
2016-08-14T02:21:29.769Z,69.4
2016-08-14T02:21:53.690Z,69.4
2016-08-14T02:22:17.794Z,69.2
2016-08-14T02:22:41.936Z,69.5
2016-08-14T02:23:06.036Z,69.3
2016-08-14T02:23:30.176Z,69.3
2016-08-14T02:23:54.283Z,69.3
2016-08-14T02:24:18.434Z,69.3
2016-08-14T02:24:42.544Z,69.3
2016-08-14T02:25:06.664Z,69.1
2016-08-14T02:25:30.775Z,69.1
2016-08-14T02:25:54.883Z,69.2
2016-08-14T02:26:18.985Z,69.1
2016-08-14T02:26:43.099Z,69.3
2016-08-14T02:27:07.222Z,69.3
2016-08-14T02:27:31.343Z,69.4
2016-08-14T02:27:55.452Z,69.4
2016-08-14T02:28:19.560Z,69.2
2016-08-14T02:28:43.695Z,69.6
2016-08-14T02:29:07.801Z,69.3
2016-08-14T02:29:31.937Z,69.5
2016-08-14T02:29:56.071Z,69.4
2016-08-14T02:30:20.182Z,69.2
2016-08-14T02:30:44.311Z,69.1
2016-08-14T02:31:08.442Z,69.2
2016-08-14T02:31:32.534Z,69.3
2016-08-14T02:31:56.653Z,69.4
2016-08-14T02:32:20.789Z,69.4
2016-08-14T02:32:44.920Z,69.4
2016-08-14T02:33:09.066Z,69.1
2016-08-14T02:33:33.192Z,69.3
2016-08-14T02:33:57.320Z,69.4
2016-08-14T02:34:21.447Z,69.1
2016-08-14T02:34:45.551Z,69.4
2016-08-14T02:35:09.700Z,69.3
2016-08-14T02:35:33.828Z,69.3
2016-08-14T02:35:57.935Z,69.3
2016-08-14T02:36:22.068Z,69.3
2016-08-14T02:36:46.200Z,69.2
2016-08-14T02:37:10.318Z,69.4
2016-08-14T02:37:34.417Z,69.2
2016-08-14T02:37:58.528Z,69.2
2016-08-14T02:38:22.649Z,69.2
2016-08-14T02:38:46.796Z,69.2
2016-08-14T02:39:10.912Z,69.2
2016-08-14T02:39:35.063Z,69.3
2016-08-14T02:39:59.190Z,69.2
2016-08-14T02:40:23.309Z,69.2
2016-08-14T02:40:47.415Z,69.2
2016-08-14T02:41:11.541Z,69.2
2016-08-14T02:41:35.872Z,69.2
2016-08-14T02:42:00.194Z,69
2016-08-14T02:42:24.338Z,69.3
2016-08-14T02:42:48.462Z,69.3
2016-08-14T02:43:12.577Z,69.1
2016-08-14T02:43:36.732Z,69.2
2016-08-14T02:44:00.859Z,69.3
2016-08-14T02:44:24.972Z,69.3
2016-08-14T02:44:49.112Z,69.1
2016-08-14T02:45:13.236Z,69.2
2016-08-14T02:45:37.361Z,69
2016-08-14T02:46:01.478Z,69.4
2016-08-14T02:46:25.576Z,69.4
2016-08-14T02:46:49.678Z,69.4
2016-08-14T02:47:13.802Z,69.8
2016-08-14T02:47:37.917Z,69.6
2016-08-14T02:48:02.050Z,69.7
2016-08-14T02:48:26.254Z,69.7
2016-08-14T02:48:50.376Z,69.9
2016-08-14T02:49:14.529Z,69.4
2016-08-14T02:49:38.672Z,69.4
2016-08-14T02:50:02.823Z,69.8
2016-08-14T02:50:26.972Z,69.7
2016-08-14T02:50:51.096Z,69.8
2016-08-14T02:51:15.227Z,69.9
2016-08-14T02:51:39.345Z,69.9
2016-08-14T02:52:03.447Z,69.7
2016-08-14T02:52:27.557Z,69.9
2016-08-14T02:52:51.642Z,69.8
2016-08-14T02:53:15.788Z,70
2016-08-14T02:53:39.897Z,69.9
2016-08-14T02:54:04.012Z,69.9
2016-08-14T02:54:28.124Z,69.8
2016-08-14T02:54:52.279Z,70
2016-08-14T02:55:16.423Z,69.8
2016-08-14T02:55:40.551Z,69.9
2016-08-14T02:56:04.660Z,69.6
2016-08-14T02:56:28.760Z,69.6
2016-08-14T02:56:52.885Z,69.6
2016-08-14T02:57:17.008Z,69.9
2016-08-14T02:57:41.123Z,70
2016-08-14T02:58:05.239Z,70
2016-08-14T02:58:29.363Z,69.9
2016-08-14T02:58:53.509Z,69.8
2016-08-14T02:59:17.662Z,69.8
2016-08-14T02:59:41.769Z,69.7
2016-08-14T03:00:05.884Z,69.9
2016-08-14T03:00:29.994Z,69.8
2016-08-14T03:00:54.107Z,69.8
2016-08-14T03:01:18.214Z,69.8
2016-08-14T03:01:42.334Z,69.9
2016-08-14T03:02:06.462Z,69.9
2016-08-14T03:02:30.560Z,70
2016-08-14T03:02:54.676Z,70.1
2016-08-14T03:03:18.772Z,70.3
2016-08-14T03:03:42.893Z,70.2
2016-08-14T03:04:07.042Z,70.3
2016-08-14T03:04:31.180Z,70.5
2016-08-14T03:04:55.281Z,70
2016-08-14T03:05:19.418Z,70.5
2016-08-14T03:05:43.515Z,70.2
2016-08-14T03:06:07.671Z,70.2
2016-08-14T03:06:31.800Z,70.5
2016-08-14T03:06:55.932Z,70.2
2016-08-14T03:07:20.047Z,70.2
2016-08-14T03:07:44.187Z,70.5
2016-08-14T03:08:08.337Z,70.4
2016-08-14T03:08:32.433Z,70.2
2016-08-14T03:08:56.556Z,70.2
2016-08-14T03:09:20.655Z,70.3
2016-08-14T03:09:44.784Z,70.2
2016-08-14T03:10:08.908Z,70.3
2016-08-14T03:10:33.046Z,70
2016-08-14T03:10:57.157Z,70
2016-08-14T03:11:21.322Z,70.5
2016-08-14T03:11:45.462Z,70
2016-08-14T03:12:09.592Z,70.3
2016-08-14T03:12:33.717Z,70.2
2016-08-14T03:12:57.832Z,70.3
2016-08-14T03:13:21.942Z,70.3
2016-08-14T03:13:46.063Z,70.4
2016-08-14T03:14:10.184Z,70.1
2016-08-14T03:14:34.324Z,70.2
2016-08-14T03:14:58.459Z,69.9
2016-08-14T03:15:22.558Z,70.3
2016-08-14T03:15:46.690Z,70.3
2016-08-14T03:16:10.805Z,70.1
2016-08-14T03:16:34.931Z,70.1
2016-08-14T03:16:59.049Z,70
2016-08-14T03:17:23.179Z,70.3
2016-08-14T03:17:47.318Z,70
2016-08-14T03:18:11.446Z,70.3
2016-08-14T03:18:35.573Z,70.1
2016-08-14T03:18:59.684Z,70.1
2016-08-14T03:19:23.807Z,70.3
2016-08-14T03:19:47.918Z,70.2
2016-08-14T03:20:12.023Z,70.2
2016-08-14T03:20:36.141Z,70.1
2016-08-14T03:21:00.269Z,70.3
2016-08-14T03:21:24.405Z,70.3
2016-08-14T03:21:48.531Z,70.1
2016-08-14T03:22:12.656Z,69.9
2016-08-14T03:22:36.764Z,70.7
2016-08-14T03:23:00.859Z,70.2
2016-08-14T03:23:24.977Z,70.1
2016-08-14T03:23:49.085Z,70.2
2016-08-14T03:24:13.202Z,70.8
2016-08-14T03:24:37.299Z,70.8
2016-08-14T03:25:01.440Z,70.8
2016-08-14T03:25:25.560Z,70.8
2016-08-14T03:25:49.688Z,70.8
2016-08-14T03:26:13.804Z,70.9
2016-08-14T03:26:37.937Z,70.8
2016-08-14T03:27:02.061Z,70.8
2016-08-14T03:27:26.193Z,70.8
2016-08-14T03:27:50.299Z,70.8
2016-08-14T03:28:14.426Z,70.9
2016-08-14T03:28:38.550Z,70.8
2016-08-14T03:29:02.692Z,70.7
2016-08-14T03:29:26.806Z,70.8
2016-08-14T03:29:50.920Z,70.8
2016-08-14T03:30:15.039Z,70.5
2016-08-14T03:30:39.162Z,70.7
2016-08-14T03:31:03.297Z,70.5
2016-08-14T03:31:27.434Z,70.5
2016-08-14T03:31:51.544Z,70.8
2016-08-14T03:32:15.655Z,70.8
2016-08-14T03:32:39.801Z,70.8
2016-08-14T03:33:03.943Z,70.8
2016-08-14T03:33:28.058Z,70.5
2016-08-14T03:33:52.171Z,70.4
2016-08-14T03:34:16.285Z,70.6
2016-08-14T03:34:40.430Z,70.6
2016-08-14T03:35:04.548Z,70.6
2016-08-14T03:35:28.673Z,70.4
2016-08-14T03:35:52.857Z,70.6
2016-08-14T03:36:16.981Z,70.2
2016-08-14T03:36:41.121Z,70.8
2016-08-14T03:37:05.234Z,70.6
2016-08-14T03:37:29.361Z,71
2016-08-14T03:37:53.490Z,70.7
2016-08-14T03:38:17.618Z,70.7
2016-08-14T03:38:41.725Z,70.3
2016-08-14T03:39:05.843Z,70.3
2016-08-14T03:39:29.946Z,70.6
2016-08-14T03:39:54.073Z,70.6
2016-08-14T03:40:18.202Z,70.4
2016-08-14T03:40:42.305Z,70.4
2016-08-14T03:41:06.430Z,70.8
2016-08-14T03:41:30.534Z,70.6
2016-08-14T03:41:54.669Z,70.9
2016-08-14T03:42:18.778Z,70.9
2016-08-14T03:42:42.880Z,70.9
2016-08-14T03:43:07.007Z,71
2016-08-14T03:43:31.140Z,71
2016-08-14T03:43:55.315Z,70.9
2016-08-14T03:44:19.483Z,71
2016-08-14T03:44:43.607Z,70.9
2016-08-14T03:45:07.734Z,71.4
2016-08-14T03:45:31.856Z,70.8
2016-08-14T03:45:56.018Z,71.3
2016-08-14T03:46:20.175Z,71.5
2016-08-14T03:46:44.293Z,70.9
2016-08-14T03:47:08.413Z,71.2
2016-08-14T03:47:32.539Z,71.2
2016-08-14T03:47:56.693Z,71.2
2016-08-14T03:48:20.799Z,71.3
2016-08-14T03:48:44.930Z,71.1
2016-08-14T03:49:09.103Z,71.1
2016-08-14T03:49:33.232Z,71.3
2016-08-14T03:49:57.360Z,71.1
2016-08-14T03:50:21.488Z,71.5
2016-08-14T03:50:45.614Z,71.5
2016-08-14T03:51:09.745Z,71.3
2016-08-14T03:51:33.860Z,71.1
2016-08-14T03:51:58.014Z,71.2
2016-08-14T03:52:22.135Z,71.2
2016-08-14T03:52:46.245Z,71
2016-08-14T03:53:10.392Z,71.2
2016-08-14T03:53:34.515Z,71.3
2016-08-14T03:53:58.643Z,71.7
2016-08-14T03:54:22.767Z,71.7
2016-08-14T03:54:46.886Z,71.7
2016-08-14T03:55:11.019Z,71
2016-08-14T03:55:35.168Z,71.7
2016-08-14T03:55:59.306Z,71.6
2016-08-14T03:56:23.436Z,71.6
2016-08-14T03:56:47.556Z,71.6
2016-08-14T03:57:11.688Z,71.7
2016-08-14T03:57:35.814Z,71.8
2016-08-14T03:57:59.928Z,71.8
2016-08-14T03:58:24.067Z,71.9
2016-08-14T03:58:48.180Z,71.5
2016-08-14T03:59:12.290Z,71.6
2016-08-14T03:59:36.409Z,71.9
2016-08-14T04:00:00.514Z,71.8
2016-08-14T04:00:24.654Z,71.7
2016-08-14T04:00:48.783Z,71.7
2016-08-14T04:01:12.917Z,71.8
2016-08-14T04:01:37.058Z,71.8
2016-08-14T04:02:01.191Z,71.8
2016-08-14T04:02:25.309Z,71.7
2016-08-14T04:02:49.436Z,71.8
2016-08-14T04:03:13.589Z,71.8
2016-08-14T04:03:37.701Z,71.7
2016-08-14T04:04:01.849Z,71.5
2016-08-14T04:04:25.979Z,71.6
2016-08-14T04:04:50.090Z,71.7
2016-08-14T04:05:14.370Z,71.7
2016-08-14T04:05:38.506Z,71.5
2016-08-14T04:06:02.615Z,71.6
2016-08-14T04:06:26.766Z,71.7
2016-08-14T04:06:50.936Z,71.7
2016-08-14T04:07:15.052Z,71.5
2016-08-14T04:07:39.186Z,71.7
2016-08-14T04:08:03.322Z,71.5
2016-08-14T04:08:27.453Z,71.5
2016-08-14T04:08:51.579Z,71.7
2016-08-14T04:09:15.737Z,71.7
2016-08-14T04:09:39.887Z,71.7
2016-08-14T04:10:04.003Z,71.7
2016-08-14T04:10:28.135Z,71.9
2016-08-14T04:10:52.269Z,71.8
2016-08-14T04:11:16.398Z,71.7
2016-08-14T04:11:40.511Z,71.5
2016-08-14T04:12:04.673Z,71.7
2016-08-14T04:12:28.808Z,71.8
2016-08-14T04:12:52.959Z,71.7
2016-08-14T04:13:17.083Z,71.3
2016-08-14T04:13:41.199Z,71.7
2016-08-14T04:14:05.319Z,71.7
2016-08-14T04:14:29.436Z,71.7
2016-08-14T04:14:53.540Z,71.5
2016-08-14T04:15:17.685Z,71.8
2016-08-14T04:15:41.857Z,71.7
2016-08-14T04:16:05.974Z,71.3
2016-08-14T04:16:30.086Z,71.4
2016-08-14T04:16:54.220Z,71.4
2016-08-14T04:17:18.337Z,71.4
2016-08-14T04:17:42.451Z,71.6
2016-08-14T04:18:06.581Z,71.5
2016-08-14T04:18:30.692Z,71.5
2016-08-14T04:18:54.826Z,71.4
2016-08-14T04:19:18.946Z,71.3
2016-08-14T04:19:43.261Z,71.5
2016-08-14T04:20:07.398Z,71.5
2016-08-14T04:20:31.530Z,71.4
2016-08-14T04:20:55.653Z,71.3
2016-08-14T04:21:19.788Z,71.8
2016-08-14T04:21:43.902Z,71.5
2016-08-14T04:22:07.996Z,72.3
2016-08-14T04:22:32.150Z,72
2016-08-14T04:22:56.243Z,71.8
2016-08-14T04:23:20.372Z,71.8
2016-08-14T04:23:44.490Z,72.1
2016-08-14T04:24:08.625Z,71.8
2016-08-14T04:24:32.770Z,72
2016-08-14T04:24:56.895Z,72.2
2016-08-14T04:25:21.030Z,72.1
2016-08-14T04:25:45.163Z,72.2
2016-08-14T04:26:09.304Z,72
2016-08-14T04:26:33.449Z,71.9
2016-08-14T04:26:57.584Z,71.8
2016-08-14T04:27:21.705Z,71.8
2016-08-14T04:27:45.841Z,71.8
2016-08-14T04:28:09.964Z,71.4
2016-08-14T04:28:34.097Z,71.8
2016-08-14T04:28:58.223Z,72
2016-08-14T04:29:22.434Z,71.5
2016-08-14T04:29:46.570Z,71.5
2016-08-14T04:30:10.705Z,71.9
2016-08-14T04:30:34.839Z,71.8
2016-08-14T04:30:58.974Z,72
2016-08-14T04:31:23.093Z,71.8
2016-08-14T04:31:47.206Z,71.8
2016-08-14T04:32:11.343Z,71.9
2016-08-14T04:32:35.459Z,72
2016-08-14T04:32:59.592Z,71.7
2016-08-14T04:33:23.713Z,72
2016-08-14T04:33:47.852Z,72.2
2016-08-14T04:34:11.973Z,71.8
2016-08-14T04:34:36.091Z,72
2016-08-14T04:35:00.220Z,71.9
2016-08-14T04:35:24.367Z,71.9
2016-08-14T04:35:48.471Z,72
2016-08-14T04:36:12.586Z,72.1
2016-08-14T04:36:36.698Z,72.4
2016-08-14T04:37:00.854Z,72.3
2016-08-14T04:37:24.966Z,72.4
2016-08-14T04:37:49.107Z,72.1
2016-08-14T04:38:13.238Z,72.1
2016-08-14T04:38:37.381Z,72.1
2016-08-14T04:39:01.527Z,72.6
2016-08-14T04:39:25.676Z,71.8
2016-08-14T04:39:49.799Z,72.7
2016-08-14T04:40:13.946Z,72.7
2016-08-14T04:40:38.073Z,72.7
2016-08-14T04:41:02.210Z,72.5
2016-08-14T04:41:26.342Z,72.6
2016-08-14T04:41:50.452Z,72.4
2016-08-14T04:42:14.592Z,72.8
2016-08-14T04:42:38.728Z,72.7
2016-08-14T04:43:02.842Z,72.3
2016-08-14T04:43:26.989Z,72.2
2016-08-14T04:43:51.226Z,72.6
2016-08-14T04:44:15.339Z,72.6
2016-08-14T04:44:39.462Z,72.6
2016-08-14T04:45:03.702Z,72.5
2016-08-14T04:45:27.853Z,72.1
2016-08-14T04:45:51.972Z,72.8
2016-08-14T04:46:16.092Z,72.3
2016-08-14T04:46:40.230Z,72.4
2016-08-14T04:47:04.365Z,72.5
2016-08-14T04:47:28.500Z,72.7
2016-08-14T04:47:52.607Z,72.8
2016-08-14T04:48:16.747Z,72.6
2016-08-14T04:48:40.905Z,71.9
2016-08-14T04:49:05.015Z,72.6
2016-08-14T04:49:29.141Z,72.1
2016-08-14T04:49:53.273Z,72.8
2016-08-14T04:50:17.419Z,72.8
2016-08-14T04:50:41.527Z,72.7
2016-08-14T04:51:05.642Z,72.5
2016-08-14T04:51:29.746Z,71.8
2016-08-14T04:51:53.872Z,72.7
2016-08-14T04:52:18.002Z,72.5
2016-08-14T04:52:42.108Z,72.5
2016-08-14T04:53:06.249Z,72.6
2016-08-14T04:53:30.410Z,72.5
2016-08-14T04:53:54.522Z,72.5
2016-08-14T04:54:18.658Z,72.3
2016-08-14T04:54:42.830Z,72.5
2016-08-14T04:55:06.951Z,72.7
2016-08-14T04:55:31.061Z,72.5
2016-08-14T04:55:55.196Z,72.5
2016-08-14T04:56:19.327Z,72.5
2016-08-14T04:56:43.438Z,72.5
2016-08-14T04:57:07.563Z,72.7
2016-08-14T04:57:31.704Z,72.5
2016-08-14T04:57:55.829Z,72.6
2016-08-14T04:58:19.958Z,72.2
2016-08-14T04:58:44.122Z,72.3
2016-08-14T04:59:08.239Z,72.5
2016-08-14T04:59:32.385Z,72.2
2016-08-14T04:59:56.505Z,71.9
2016-08-14T05:00:20.637Z,71.7
2016-08-14T05:00:44.766Z,71.4
2016-08-14T05:01:08.910Z,71.6
2016-08-14T05:01:33.056Z,71.5
2016-08-14T05:01:57.201Z,71.6
2016-08-14T05:02:21.321Z,71.6
2016-08-14T05:02:45.428Z,71.5
2016-08-14T05:03:09.589Z,71.6
2016-08-14T05:03:33.700Z,71.7
2016-08-14T05:03:57.888Z,71.6
2016-08-14T05:04:22.017Z,71.6
2016-08-14T05:04:46.186Z,71.5
2016-08-14T05:05:10.321Z,71.5
2016-08-14T05:05:34.475Z,71.5
2016-08-14T05:05:58.603Z,71.8
2016-08-14T05:06:22.728Z,71.7
2016-08-14T05:06:46.856Z,71.7
2016-08-14T05:07:10.961Z,71.8
2016-08-14T05:07:35.101Z,71.7
2016-08-14T05:07:59.250Z,71.7
2016-08-14T05:08:23.396Z,71.6
2016-08-14T05:08:47.493Z,71.5
2016-08-14T05:09:11.656Z,71.8
2016-08-14T05:09:35.760Z,71.4
2016-08-14T05:09:59.909Z,71.3
2016-08-14T05:10:24.027Z,71.5
2016-08-14T05:10:48.137Z,71.5
2016-08-14T05:11:12.302Z,71.6
2016-08-14T05:11:36.418Z,71.6
2016-08-14T05:12:00.538Z,71.7
2016-08-14T05:12:24.651Z,72
2016-08-14T05:12:48.757Z,72.1
2016-08-14T05:13:12.887Z,71.8
2016-08-14T05:13:37.019Z,72.1
2016-08-14T05:14:01.184Z,72.1
2016-08-14T05:14:25.294Z,71.9
2016-08-14T05:14:49.423Z,72
2016-08-14T05:15:13.565Z,72
2016-08-14T05:15:37.694Z,72.1
2016-08-14T05:16:01.832Z,71.6
2016-08-14T05:16:25.977Z,71.8
2016-08-14T05:16:50.067Z,72.1
2016-08-14T05:17:14.176Z,72
2016-08-14T05:17:38.404Z,72
2016-08-14T05:18:02.540Z,71.6
2016-08-14T05:18:26.660Z,71.7
2016-08-14T05:18:50.791Z,71.5
2016-08-14T05:19:14.912Z,72.1
2016-08-14T05:19:39.039Z,72.2
2016-08-14T05:20:03.155Z,72.3
2016-08-14T05:20:27.304Z,72.5
2016-08-14T05:20:51.424Z,72.3
2016-08-14T05:21:15.536Z,72.2
2016-08-14T05:21:39.670Z,72.4
2016-08-14T05:22:03.798Z,72.2
2016-08-14T05:22:27.929Z,72.3
2016-08-14T05:22:52.029Z,72.2